Terminal Aerodrome Forecast
Issued by NWS

Home | Current Version | Previous Version | Text Only | Print | Product List | Glossary On
Versions: 1 2 3 4 5 6 7 8 9 10 11 12 13 14 15 16 17 18
000
FTUS45 KFGZ 252326
TAFPRC
TAF
KPRC 252326Z 2600/2624 VRB05KT P6SM SKC
     FM261100 16010KT P6SM FEW250
     FM261800 19013G23KT P6SM SCT250=

USA.gov is the U.S. government's official web portal to all federal, state and local government web resources and services.